Time;durP1;ratioP1;P1;durP2;ratioP2;P2;SDS_P1;SDS_P2;PMS_P1;PMS_P2;Temp;Humidity;BMP_temperature;BMP_pressure;BME280_temperature;BME280_humidity;BME280_pressure;Samples;Min_cycle;Max_cycle;Signal;HPM_P1;HPM_P2
2024/04/15 00:01:36;;;;;;;0.80;0.55;;;16.00;52.40;;;;;;5343026;26;20012;-72
2024/04/15 00:04:03;;;;;;;1.75;0.35;;;16.00;52.80;;;;;;5344236;26;20001;-71
2024/04/15 00:06:29;;;;;;;1.95;1.25;;;15.90;53.10;;;;;;5345905;26;20012;-71
2024/04/15 00:08:56;;;;;;;0.30;0.30;;;15.90;53.00;;;;;;5344614;26;19996;-71
2024/04/15 00:11:23;;;;;;;0.17;0.17;;;15.80;52.70;;;;;;5314520;26;20008;-74
2024/04/15 00:13:50;;;;;;;1.08;0.80;;;15.80;53.00;;;;;;5346054;26;20008;-74
2024/04/15 00:16:17;;;;;;;1.38;0.93;;;15.70;53.50;;;;;;5345693;26;20394;-72
2024/04/15 00:18:44;;;;;;;0.57;0.47;;;15.70;53.30;;;;;;5344329;26;20465;-71
2024/04/15 00:21:11;;;;;;;0.80;0.35;;;15.70;53.50;;;;;;5345379;26;20004;-74
2024/04/15 00:23:38;;;;;;;0.77;0.57;;;15.60;53.40;;;;;;5345776;26;20056;-71
2024/04/15 00:26:05;;;;;;;0.20;0.20;;;15.60;53.40;;;;;;5344139;26;20071;-71
2024/04/15 00:28:32;;;;;;;0.40;0.25;;;15.60;53.30;;;;;;5345623;26;20434;-74
2024/04/15 00:30:59;;;;;;;1.63;0.85;;;15.60;53.10;;;;;;5314381;26;20008;-71
2024/04/15 00:33:26;;;;;;;1.17;1.00;;;15.60;53.30;;;;;;5345685;26;20008;-74
2024/04/15 00:35:53;;;;;;;0.77;0.60;;;15.50;54.10;;;;;;5345598;26;20008;-74
2024/04/15 00:38:20;;;;;;;1.75;0.80;;;15.40;54.10;;;;;;5343949;26;20337;-74
2024/04/15 00:40:47;;;;;;;1.17;0.98;;;15.30;54.00;;;;;;5343527;26;19997;-74
2024/04/15 00:43:14;;;;;;;1.15;0.47;;;15.30;53.70;;;;;;5343689;26;20003;-74
2024/04/15 00:45:40;;;;;;;0.95;0.55;;;15.30;53.90;;;;;;5343758;26;20070;-72
2024/04/15 00:48:14;;;;;;;0.40;0.20;;;15.20;53.70;;;;;;5372269;26;20074;-74
2024/04/15 00:50:44;;;;;;;0.10;0.10;;;15.20;53.70;;;;;;5314447;26;20001;-72
2024/04/15 00:53:14;;;;;;;1.08;0.43;;;15.20;54.60;;;;;;5314660;26;20001;-72
2024/04/15 00:55:41;;;;;;;0.50;0.40;;;15.10;54.40;;;;;;5345354;26;20034;-74
2024/04/15 00:58:09;;;;;;;0.10;0.10;;;15.20;54.30;;;;;;5343411;26;20005;-71
2024/04/15 01:00:37;;;;;;;0.30;0.30;;;15.10;54.20;;;;;;5314494;26;20005;-75
2024/04/15 01:03:05;;;;;;;0.40;0.30;;;15.00;54.60;;;;;;5345380;26;20318;-71
2024/04/15 01:05:32;;;;;;;0.38;0.30;;;15.00;54.70;;;;;;5345459;26;20012;-75
2024/04/15 01:07:59;;;;;;;1.00;0.68;;;15.10;54.70;;;;;;5314864;26;20445;-74
2024/04/15 01:10:26;;;;;;;0.85;0.55;;;14.90;55.30;;;;;;5343361;26;20001;-74
2024/04/15 01:12:53;;;;;;;0.43;0.30;;;14.90;55.20;;;;;;5314904;26;20369;-71
2024/04/15 01:15:20;;;;;;;1.15;0.90;;;14.90;55.20;;;;;;5345520;26;19997;-74
2024/04/15 01:17:47;;;;;;;0.65;0.40;;;14.80;55.00;;;;;;5343387;26;20385;-71
2024/04/15 01:20:15;;;;;;;0.73;0.50;;;14.80;54.90;;;;;;5344285;26;19997;-71
2024/04/15 01:23:10;;;;;;;2.20;1.08;;;14.90;54.80;;;;;;5344738;26;20001;-71
2024/04/15 01:25:37;;;;;;;1.65;0.40;;;14.80;54.90;;;;;;5344473;26;20016;-71
2024/04/15 01:28:04;;;;;;;0.30;0.30;;;14.70;55.50;;;;;;5344742;26;19996;-74
2024/04/15 01:30:31;;;;;;;2.00;0.80;;;14.70;54.90;;;;;;5313806;26;20074;-71
2024/04/15 01:32:58;;;;;;;0.28;0.20;;;14.60;54.60;;;;;;5344867;26;20013;-74
2024/04/15 01:35:25;;;;;;;0.30;0.30;;;14.60;54.50;;;;;;5345212;26;20021;-75
2024/04/15 01:37:53;;;;;;;0.30;0.30;;;14.50;54.50;;;;;;5344842;26;20333;-72
2024/04/15 01:40:19;;;;;;;0.43;0.40;;;14.30;54.40;;;;;;5344412;26;20012;-74
2024/04/15 01:42:46;;;;;;;0.52;0.50;;;14.30;54.20;;;;;;5345084;26;20009;-71
2024/04/15 01:45:13;;;;;;;2.60;1.23;;;14.20;54.70;;;;;;5343193;26;20001;-72
2024/04/15 01:47:42;;;;;;;0.73;0.30;;;14.10;55.40;;;;;;5343060;26;20001;-71
2024/04/15 01:50:08;;;;;;;1.13;0.68;;;14.10;55.70;;;;;;5342465;26;20370;-75
2024/04/15 01:52:35;;;;;;;0.55;0.30;;;14.10;55.50;;;;;;5344680;26;20008;-71
2024/04/15 01:55:02;;;;;;;0.17;0.17;;;14.00;55.70;;;;;;5344725;26;20422;-71
2024/04/15 01:57:29;;;;;;;1.05;0.63;;;14.00;56.00;;;;;;5342833;26;20011;-74
2024/04/15 01:59:55;;;;;;;1.38;0.65;;;13.90;56.10;;;;;;5371345;26;20007;-71
2024/04/15 02:02:22;;;;;;;0.68;0.52;;;14.00;56.20;;;;;;5343726;26;20012;-71
2024/04/15 02:04:49;;;;;;;1.55;0.60;;;14.00;56.10;;;;;;5345326;26;20016;-71
2024/04/15 02:07:16;;;;;;;1.38;0.95;;;14.00;56.00;;;;;;5343233;26;19997;-74
2024/04/15 02:09:43;;;;;;;0.20;0.20;;;14.00;55.80;;;;;;5344811;26;20001;-74
2024/04/15 02:12:10;;;;;;;0.30;0.30;;;13.90;56.50;;;;;;5344196;26;20011;-71
2024/04/15 02:14:36;;;;;;;0.20;0.20;;;13.80;56.60;;;;;;5343248;26;20008;-71
2024/04/15 02:17:04;;;;;;;1.48;0.47;;;13.70;56.50;;;;;;5343040;26;20001;-71
2024/04/15 02:19:32;;;;;;;2.03;1.25;;;13.70;56.50;;;;;;5344831;26;20039;-71
2024/04/15 02:21:59;;;;;;;0.90;0.50;;;13.60;56.60;;;;;;5342007;26;20001;-74
2024/04/15 02:24:27;;;;;;;0.45;0.43;;;13.50;56.80;;;;;;5342869;26;20001;-71
2024/04/15 02:26:54;;;;;;;0.82;0.35;;;13.50;57.10;;;;;;5344299;26;20463;-74
2024/04/15 02:29:21;;;;;;;0.52;0.38;;;13.60;57.00;;;;;;5341871;26;20465;-71
2024/04/15 02:31:48;;;;;;;0.82;0.52;;;13.60;56.40;;;;;;5343371;26;20008;-71
2024/04/15 02:34:17;;;;;;;2.65;0.70;;;13.70;56.10;;;;;;5342449;26;20075;-71
2024/04/15 02:36:44;;;;;;;0.68;0.43;;;13.70;56.30;;;;;;5344095;26;20454;-71
2024/04/15 02:39:12;;;;;;;1.40;1.05;;;13.70;56.00;;;;;;5343980;26;20007;-71
2024/04/15 02:41:39;;;;;;;1.00;0.85;;;13.70;56.30;;;;;;5341116;26;20005;-74
2024/04/15 02:44:06;;;;;;;0.20;0.20;;;13.80;56.00;;;;;;5342230;26;20070;-74
2024/04/15 02:46:33;;;;;;;0.47;0.40;;;13.80;56.00;;;;;;5342065;26;19997;-71
2024/04/15 02:49:00;;;;;;;1.00;0.45;;;13.80;55.60;;;;;;5343789;26;20082;-74
2024/04/15 02:51:31;;;;;;;0.88;0.80;;;13.80;55.50;;;;;;5343056;26;20001;-74
2024/04/15 02:53:58;;;;;;;0.10;0.10;;;13.80;55.30;;;;;;5344167;26;20450;-74
2024/04/15 02:56:26;;;;;;;1.55;0.98;;;13.70;55.40;;;;;;5343381;26;20008;-74
2024/04/15 02:58:53;;;;;;;1.20;0.50;;;13.70;55.60;;;;;;5342002;26;20041;-74
2024/04/15 03:01:20;;;;;;;0.85;0.55;;;13.70;55.50;;;;;;5342687;26;20001;-71
2024/04/15 03:03:48;;;;;;;1.08;0.57;;;13.70;56.00;;;;;;5343847;26;20074;-73
2024/04/15 03:06:20;;;;;;;0.20;0.20;;;13.60;55.80;;;;;;5343421;26;20020;-71
2024/04/15 03:08:48;;;;;;;1.00;0.52;;;13.70;56.20;;;;;;5342216;26;20008;-71
2024/04/15 03:11:14;;;;;;;0.28;0.20;;;13.70;55.90;;;;;;5369753;26;20015;-74
2024/04/15 03:13:41;;;;;;;0.98;0.50;;;13.70;56.40;;;;;;5343969;26;20004;-74
2024/04/15 03:16:08;;;;;;;0.50;0.35;;;13.60;56.60;;;;;;5343386;26;20012;-74
2024/04/15 03:18:34;;;;;;;0.25;0.25;;;13.60;56.60;;;;;;5343178;26;20011;-75
2024/04/15 03:21:20;;;;;;;1.08;0.35;;;13.60;56.70;;;;;;5340826;26;20075;-74
2024/04/15 03:23:47;;;;;;;0.20;0.20;;;13.50;56.70;;;;;;5343481;26;19997;-74
2024/04/15 03:26:14;;;;;;;0.70;0.30;;;13.50;56.60;;;;;;5340640;26;20091;-71
2024/04/15 03:28:42;;;;;;;1.20;0.60;;;13.50;56.40;;;;;;5343086;26;20009;-71
2024/04/15 03:31:09;;;;;;;0.47;0.40;;;13.50;56.60;;;;;;5342525;26;20400;-71
2024/04/15 03:33:37;;;;;;;1.65;1.08;;;13.40;56.60;;;;;;5341320;26;20008;-75
2024/04/15 03:36:05;;;;;;;0.43;0.40;;;13.40;56.30;;;;;;5341197;26;19997;-74
2024/04/15 03:38:31;;;;;;;0.13;0.13;;;13.30;56.70;;;;;;5342680;26;20008;-74
2024/04/15 03:40:58;;;;;;;0.35;0.30;;;13.30;57.00;;;;;;5342311;26;20004;-74
2024/04/15 03:43:25;;;;;;;2.08;1.13;;;13.20;56.90;;;;;;5342644;26;20008;-71
2024/04/15 03:45:52;;;;;;;0.98;0.40;;;13.20;57.60;;;;;;5341081;26;20001;-74
2024/04/15 03:48:19;;;;;;;0.40;0.20;;;13.20;56.90;;;;;;5343947;26;19997;-74
2024/04/15 03:50:45;;;;;;;0.45;0.45;;;13.20;56.90;;;;;;5343861;26;20012;-71
2024/04/15 03:53:13;;;;;;;0.63;0.38;;;13.20;56.90;;;;;;5344401;26;20005;-74
2024/04/15 03:55:39;;;;;;;0.20;0.20;;;13.20;56.50;;;;;;5346360;26;20008;-72
2024/04/15 03:58:07;;;;;;;0.20;0.20;;;13.20;56.50;;;;;;5315779;26;20453;-71
2024/04/15 04:00:33;;;;;;;1.85;0.90;;;13.20;56.60;;;;;;5345671;26;19997;-74
2024/04/15 04:03:00;;;;;;;0.22;0.20;;;13.10;56.40;;;;;;5345470;26;20013;-71
2024/04/15 04:05:27;;;;;;;0.65;0.45;;;13.10;56.50;;;;;;5344343;26;20000;-71
2024/04/15 04:07:54;;;;;;;0.63;0.45;;;13.10;56.40;;;;;;5345933;26;20001;-74
2024/04/15 04:10:21;;;;;;;0.13;0.13;;;13.10;56.40;;;;;;5345558;26;20008;-71
2024/04/15 04:12:48;;;;;;;0.80;0.50;;;13.00;56.50;;;;;;5345632;26;20347;-74
2024/04/15 04:15:15;;;;;;;1.83;0.77;;;13.00;56.50;;;;;;5344160;26;20326;-74
2024/04/15 04:17:45;;;;;;;0.20;0.20;;;13.00;56.50;;;;;;5345838;26;20329;-74
2024/04/15 04:20:12;;;;;;;0.10;0.10;;;13.00;56.60;;;;;;5343425;26;19997;-71
2024/04/15 04:22:39;;;;;;;0.55;0.47;;;12.90;57.00;;;;;;5343743;26;19997;-71
2024/04/15 04:25:06;;;;;;;1.38;0.75;;;12.90;57.40;;;;;;5345609;26;20532;-74
2024/04/15 04:27:33;;;;;;;0.13;0.13;;;12.90;57.50;;;;;;5344154;26;19993;-71
2024/04/15 04:30:00;;;;;;;0.82;0.40;;;12.90;57.50;;;;;;5372590;26;20042;-74
2024/04/15 04:32:27;;;;;;;0.38;0.30;;;13.00;57.60;;;;;;5343226;26;20438;-71
2024/04/15 04:34:54;;;;;;;1.75;0.73;;;13.00;57.60;;;;;;5343829;26;20016;-71
2024/04/15 04:37:21;;;;;;;0.30;0.30;;;13.00;57.30;;;;;;5372137;26;19993;-74
2024/04/15 04:39:51;;;;;;;0.25;0.25;;;13.00;57.30;;;;;;5346026;26;20362;-71
2024/04/15 04:42:18;;;;;;;0.52;0.50;;;13.00;57.50;;;;;;5313836;26;19997;-71
2024/04/15 04:44:45;;;;;;;0.77;0.70;;;13.00;57.70;;;;;;5343328;26;20453;-74
2024/04/15 04:47:12;;;;;;;0.82;0.30;;;13.00;57.80;;;;;;5371843;26;20068;-71
2024/04/15 04:49:39;;;;;;;0.55;0.50;;;13.00;58.10;;;;;;5345661;26;20016;-74
2024/04/15 04:52:06;;;;;;;0.10;0.10;;;13.00;58.00;;;;;;5344624;26;20082;-74
2024/04/15 04:54:33;;;;;;;0.52;0.47;;;13.00;57.80;;;;;;5345480;26;20530;-71
2024/04/15 04:56:59;;;;;;;0.45;0.45;;;13.10;57.90;;;;;;5345219;26;20001;-75
2024/04/15 04:59:26;;;;;;;1.05;0.57;;;13.10;57.70;;;;;;5343838;26;20082;-72
2024/04/15 05:01:54;;;;;;;0.30;0.28;;;13.20;57.70;;;;;;5344221;26;20013;-71
2024/04/15 05:04:20;;;;;;;0.22;0.22;;;13.20;57.70;;;;;;5343022;26;20070;-74
2024/04/15 05:06:47;;;;;;;0.40;0.32;;;13.20;57.70;;;;;;5343108;26;19997;-71
2024/04/15 05:09:14;;;;;;;0.63;0.40;;;13.10;57.90;;;;;;5344923;26;20385;-71
2024/04/15 05:11:41;;;;;;;0.45;0.38;;;13.20;57.70;;;;;;5342814;26;19996;-75
2024/04/15 05:14:07;;;;;;;0.45;0.30;;;13.20;58.10;;;;;;5344892;26;20008;-74
2024/04/15 05:16:34;;;;;;;0.32;0.22;;;13.30;58.00;;;;;;5344830;26;20000;-75
2024/04/15 05:19:01;;;;;;;1.73;0.65;;;13.30;57.90;;;;;;5345039;26;20000;-74
2024/04/15 05:21:29;;;;;;;0.45;0.43;;;13.30;58.70;;;;;;5344238;26;19997;-71
2024/04/15 05:23:56;;;;;;;1.67;0.70;;;13.40;58.40;;;;;;5343496;26;20012;-71
2024/04/15 05:26:23;;;;;;;0.45;0.20;;;13.50;58.60;;;;;;5314353;26;20004;-71
2024/04/15 05:28:49;;;;;;;0.43;0.35;;;13.50;58.80;;;;;;5343319;26;20008;-74
2024/04/15 05:31:16;;;;;;;0.35;0.20;;;13.50;58.50;;;;;;5342460;26;20012;-73
2024/04/15 05:33:43;;;;;;;0.57;0.50;;;13.60;58.60;;;;;;5343208;26;20074;-74
2024/04/15 05:36:10;;;;;;;0.80;0.40;;;13.70;58.50;;;;;;5342874;26;20011;-71
2024/04/15 05:38:37;;;;;;;0.50;0.30;;;13.80;58.90;;;;;;5344738;26;20004;-75
2024/04/15 05:41:03;;;;;;;0.77;0.50;;;13.90;58.90;;;;;;5342209;26;20051;-74
2024/04/15 05:43:30;;;;;;;1.50;1.10;;;13.90;59.30;;;;;;5342444;26;19993;-71
2024/04/15 05:45:57;;;;;;;0.63;0.47;;;14.00;58.70;;;;;;5342919;26;20000;-71
2024/04/15 05:48:23;;;;;;;0.95;0.68;;;14.10;58.70;;;;;;5342971;26;20048;-75
2024/04/15 05:50:50;;;;;;;1.75;0.82;;;14.20;59.10;;;;;;5344129;26;20005;-74
2024/04/15 05:53:18;;;;;;;0.52;0.40;;;14.30;59.40;;;;;;5344577;26;20001;-75
2024/04/15 05:55:44;;;;;;;0.77;0.65;;;14.30;60.00;;;;;;5344561;26;20000;-71
2024/04/15 05:58:11;;;;;;;0.98;0.55;;;14.40;60.70;;;;;;5342472;26;19997;-71
2024/04/15 06:00:38;;;;;;;2.08;1.05;;;14.50;61.10;;;;;;5343855;26;19997;-71
2024/04/15 06:03:06;;;;;;;1.15;0.60;;;14.70;61.30;;;;;;5343767;26;20008;-71
2024/04/15 06:05:34;;;;;;;3.55;1.77;;;14.90;61.00;;;;;;5342875;26;20009;-75
2024/04/15 06:08:00;;;;;;;0.55;0.50;;;15.10;59.80;;;;;;5344610;26;20074;-74
2024/04/15 06:10:27;;;;;;;12.10;0.73;;;15.40;58.30;;;;;;5370397;26;20389;-74
2024/04/15 06:12:54;;;;;;;0.57;0.38;;;15.60;58.30;;;;;;5342639;26;20000;-72
2024/04/15 06:15:21;;;;;;;3.67;1.25;;;15.90;57.30;;;;;;5342636;26;20025;-74
2024/04/15 06:17:48;;;;;;;0.70;0.40;;;16.10;58.70;;;;;;5344370;26;20070;-71
2024/04/15 06:20:14;;;;;;;2.63;0.60;;;16.20;57.80;;;;;;5341839;26;20470;-75
2024/04/15 06:22:41;;;;;;;1.00;0.57;;;16.40;56.80;;;;;;5371055;26;20563;-71
2024/04/15 06:25:08;;;;;;;0.47;0.45;;;16.50;56.20;;;;;;5344159;26;19996;-74
2024/04/15 06:27:35;;;;;;;0.25;0.25;;;16.70;55.10;;;;;;5343948;26;20008;-71
2024/04/15 06:30:04;;;;;;;1.13;0.93;;;16.90;53.70;;;;;;5344072;26;19997;-74
2024/04/15 06:32:30;;;;;;;0.95;0.65;;;17.00;51.90;;;;;;5343283;26;20067;-72
2024/04/15 06:34:57;;;;;;;0.40;0.40;;;17.30;51.60;;;;;;5343978;26;20017;-71
2024/04/15 06:37:24;;;;;;;0.52;0.52;;;17.40;50.50;;;;;;5343916;26;19996;-72
2024/04/15 06:39:51;;;;;;;0.68;0.47;;;17.60;50.30;;;;;;5343828;26;20485;-72
2024/04/15 06:42:18;;;;;;;3.40;1.55;;;17.80;48.80;;;;;;5341192;26;19997;-71
2024/04/15 06:44:44;;;;;;;0.30;0.20;;;18.00;48.60;;;;;;5344092;26;19997;-75
2024/04/15 06:47:12;;;;;;;0.47;0.30;;;18.10;49.60;;;;;;5342861;26;19997;-74
2024/04/15 06:49:39;;;;;;;0.77;0.30;;;18.20;48.60;;;;;;5343842;26;20004;-72
2024/04/15 06:52:07;;;;;;;6.13;0.47;;;18.40;48.50;;;;;;5342669;26;20013;-74
2024/04/15 06:54:36;;;;;;;0.88;0.45;;;18.50;49.40;;;;;;5343953;26;19993;-72
2024/04/15 06:57:03;;;;;;;1.27;0.30;;;18.70;48.40;;;;;;5341705;26;20453;-75
2024/04/15 06:59:30;;;;;;;0.95;0.52;;;18.80;49.60;;;;;;5343745;26;20481;-72
2024/04/15 07:01:58;;;;;;;0.20;0.20;;;19.00;48.50;;;;;;5340584;26;20019;-72
2024/04/15 07:04:24;;;;;;;1.75;0.80;;;19.10;48.30;;;;;;5341313;26;20075;-74
2024/04/15 07:06:51;;;;;;;1.25;0.52;;;19.30;48.50;;;;;;5341811;26;19997;-72
2024/04/15 07:09:18;;;;;;;1.15;0.75;;;19.40;48.80;;;;;;5343551;26;19997;-73
2024/04/15 07:11:46;;;;;;;0.47;0.40;;;19.70;46.90;;;;;;5312255;26;20016;-74
2024/04/15 07:14:12;;;;;;;0.20;0.20;;;20.10;46.90;;;;;;5341541;26;20012;-74
2024/04/15 07:16:39;;;;;;;0.63;0.38;;;20.40;45.50;;;;;;5341257;26;20070;-72
2024/04/15 07:19:05;;;;;;;0.85;0.43;;;20.90;44.30;;;;;;5343297;26;19997;-75
2024/04/15 07:21:32;;;;;;;0.20;0.20;;;21.40;43.40;;;;;;5342600;26;20004;-75
2024/04/15 07:23:59;;;;;;;1.08;0.52;;;21.80;42.30;;;;;;5344464;26;20070;-74
2024/04/15 07:26:26;;;;;;;1.25;1.08;;;22.30;41.20;;;;;;5373367;26;20680;-72
2024/04/15 07:28:53;;;;;;;0.43;0.35;;;22.80;39.30;;;;;;5315963;26;20000;-72
2024/04/15 07:31:20;;;;;;;1.55;0.73;;;23.20;38.50;;;;;;5345908;26;20448;-75
2024/04/15 07:33:47;;;;;;;1.25;0.85;;;23.60;36.80;;;;;;5344620;26;20012;-74
2024/04/15 07:36:13;;;;;;;0.20;0.20;;;24.00;35.00;;;;;;5346319;26;20007;-72
2024/04/15 07:38:40;;;;;;;0.88;0.55;;;24.40;34.40;;;;;;5344827;26;19996;-74
2024/04/15 07:41:07;;;;;;;0.57;0.45;;;24.70;34.40;;;;;;5344124;26;19997;-74
2024/04/15 07:43:34;;;;;;;0.55;0.38;;;25.10;33.00;;;;;;5346240;26;20008;-75
2024/04/15 07:46:01;;;;;;;1.02;0.68;;;25.50;31.20;;;;;;5346102;26;20001;-72
2024/04/15 07:48:28;;;;;;;0.35;0.30;;;25.80;30.30;;;;;;5344585;26;19997;-74
2024/04/15 07:50:55;;;;;;;0.80;0.57;;;26.30;31.00;;;;;;5345507;26;20001;-73
2024/04/15 07:53:21;;;;;;;0.57;0.55;;;26.60;29.00;;;;;;5346533;26;19997;-74
2024/04/15 07:55:48;;;;;;;0.40;0.32;;;26.90;29.30;;;;;;5346265;26;19997;-75
2024/04/15 07:58:15;;;;;;;0.70;0.57;;;27.20;29.00;;;;;;5346034;26;19993;-73
2024/04/15 08:00:43;;;;;;;0.47;0.47;;;27.60;29.30;;;;;;5343866;26;20005;-73
2024/04/15 08:03:10;;;;;;;0.90;0.52;;;28.00;28.90;;;;;;5373424;26;20066;-72
2024/04/15 08:05:37;;;;;;;3.50;1.02;;;28.30;27.20;;;;;;5344589;26;20009;-72
2024/04/15 08:08:06;;;;;;;1.45;0.80;;;28.60;26.40;;;;;;5373259;26;20059;-72
2024/04/15 08:10:34;;;;;;;0.55;0.40;;;28.80;27.80;;;;;;5314997;26;20008;-74
2024/04/15 08:13:01;;;;;;;0.55;0.50;;;29.00;25.00;;;;;;5344515;26;20008;-74
2024/04/15 08:15:31;;;;;;;3.00;1.48;;;29.20;24.10;;;;;;5346176;26;20012;-71
2024/04/15 08:17:59;;;;;;;0.43;0.43;;;29.30;24.50;;;;;;5344816;26;20336;-72
2024/04/15 08:20:25;;;;;;;0.32;0.30;;;29.40;23.50;;;;;;5345818;26;20319;-73
2024/04/15 08:22:52;;;;;;;1.13;0.90;;;29.60;24.70;;;;;;5344455;26;20011;-74
2024/04/15 08:25:19;;;;;;;2.40;1.65;;;30.00;24.30;;;;;;5345791;26;20063;-75
2024/04/15 08:27:46;;;;;;;0.57;0.40;;;30.20;24.40;;;;;;5346095;26;20040;-73
2024/04/15 08:30:13;;;;;;;1.90;1.20;;;30.50;24.00;;;;;;5345455;26;20048;-74
2024/04/15 08:44:36;;;;;;;1.10;0.80;;;32.60;21.90;;;;;;5504945;25;20586;-74
2024/04/15 08:47:12;;;;;;;1.20;0.70;;;32.90;21.90;;;;;;5503630;26;20008;-72
2024/04/15 08:49:39;;;;;;;1.30;0.93;;;33.10;20.40;;;;;;5506134;25;19998;-72
2024/04/15 08:52:08;;;;;;;0.38;0.38;;;33.10;19.60;;;;;;5473935;25;20002;-72
2024/04/15 08:54:35;;;;;;;1.25;1.10;;;33.20;20.10;;;;;;5468558;26;19998;-73
2024/04/15 08:57:03;;;;;;;1.55;0.65;;;33.40;19.70;;;;;;5435999;26;20470;-73
2024/04/15 08:59:32;;;;;;;0.50;0.50;;;33.60;18.70;;;;;;5436585;26;20005;-72
2024/04/15 09:01:59;;;;;;;0.70;0.70;;;34.00;18.40;;;;;;5465948;26;19994;-73
2024/04/15 09:04:25;;;;;;;1.92;0.80;;;34.00;18.80;;;;;;5466765;26;19995;-74
2024/04/15 09:06:52;;;;;;;0.80;0.52;;;34.30;18.60;;;;;;5468568;26;20006;-73
2024/04/15 09:09:19;;;;;;;1.08;0.77;;;34.60;18.70;;;;;;5468332;26;19990;-74
2024/04/15 09:11:48;;;;;;;0.60;0.60;;;35.10;18.30;;;;;;5465400;26;20071;-73
2024/04/15 09:14:15;;;;;;;0.98;0.88;;;35.50;18.00;;;;;;5468119;26;19991;-72
2024/04/15 09:16:42;;;;;;;0.88;0.85;;;35.90;16.90;;;;;;5467503;26;20005;-72
2024/04/15 09:19:10;;;;;;;0.40;0.40;;;36.10;16.20;;;;;;5467987;26;20009;-72
2024/04/15 09:21:40;;;;;;;0.40;0.40;;;36.30;16.70;;;;;;5467429;26;20014;-73
2024/04/15 09:24:10;;;;;;;3.30;0.50;;;36.40;16.70;;;;;;5465981;26;20337;-74
2024/04/15 09:26:37;;;;;;;0.60;0.60;;;36.90;16.00;;;;;;5466308;26;20039;-74
2024/04/15 09:29:04;;;;;;;0.77;0.65;;;37.20;15.30;;;;;;5467738;26;19998;-73
2024/04/15 09:31:32;;;;;;;1.73;1.33;;;37.60;15.90;;;;;;5467050;26;20000;-74
2024/04/15 09:33:59;;;;;;;0.55;0.40;;;38.20;14.90;;;;;;5467224;26;19994;-75
2024/04/15 09:36:26;;;;;;;0.63;0.52;;;38.20;13.50;;;;;;5467691;26;20701;-74
2024/04/15 09:38:53;;;;;;;1.02;0.82;;;38.40;14.60;;;;;;5435317;26;20006;-74
2024/04/15 09:41:21;;;;;;;0.60;0.50;;;38.70;13.60;;;;;;5465996;26;20002;-73
2024/04/15 09:43:49;;;;;;;1.77;0.98;;;38.60;13.20;;;;;;5460079;26;20458;-72
2024/04/15 09:46:18;;;;;;;1.00;0.88;;;38.50;13.30;;;;;;5420623;26;19995;-73
2024/04/15 09:48:49;;;;;;;0.73;0.70;;;38.50;13.60;;;;;;5450615;26;19999;-73
2024/04/15 09:51:37;;;;;;;0.88;0.82;;;38.50;14.40;;;;;;5413390;26;19999;-72
2024/04/15 09:54:09;;;;;;;1.73;1.20;;;38.80;13.90;;;;;;5416594;26;20077;-74
2024/04/15 09:56:44;;;;;;;0.88;0.63;;;38.80;12.60;;;;;;5414758;26;20003;-73
2024/04/15 09:59:15;;;;;;;1.77;1.43;;;39.10;14.40;;;;;;5385019;26;20466;-74
2024/04/15 10:01:43;;;;;;;0.68;0.57;;;39.50;12.70;;;;;;5414014;26;20000;-74
2024/04/15 10:04:32;;;;;;;1.02;0.93;;;39.40;12.30;;;;;;5415363;26;19999;-74
2024/04/15 10:07:03;;;;;;;1.85;0.70;;;39.40;11.40;;;;;;5414390;26;20015;-73
2024/04/15 10:09:32;;;;;;;1.33;1.23;;;39.70;11.90;;;;;;5414439;26;20072;-73
2024/04/15 10:11:59;;;;;;;0.50;0.50;;;40.20;11.70;;;;;;5413683;26;19999;-75
2024/04/15 10:14:26;;;;;;;0.73;0.70;;;40.30;11.40;;;;;;5415481;26;19995;-73
2024/04/15 10:16:55;;;;;;;1.00;0.90;;;40.50;11.40;;;;;;5413682;26;20398;-72
2024/04/15 10:19:41;;;;;;;0.70;0.65;;;40.90;11.00;;;;;;5415916;26;19992;-74
2024/04/15 10:22:09;;;;;;;7.50;1.00;;;41.10;10.50;;;;;;5412479;26;20463;-72
2024/04/15 10:24:38;;;;;;;1.08;0.60;;;41.30;10.20;;;;;;5414194;26;19995;-73
2024/04/15 10:27:05;;;;;;;1.40;1.30;;;41.00;10.10;;;;;;5415863;26;20008;-74
2024/04/15 10:29:37;;;;;;;1.35;1.20;;;41.10;10.20;;;;;;5414537;26;19995;-73
2024/04/15 10:32:08;;;;;;;0.98;0.70;;;41.20;10.20;;;;;;5414950;26;20015;-74
2024/04/15 10:34:42;;;;;;;0.90;0.88;;;41.20;10.30;;;;;;5415960;26;20013;-74
2024/04/15 10:37:29;;;;;;;0.60;0.60;;;40.90;10.00;;;;;;5415651;26;20004;-73
2024/04/15 10:40:03;;;;;;;0.57;0.57;;;41.20;9.90;;;;;;5414162;26;20447;-73
2024/04/15 10:42:29;;;;;;;1.02;0.85;;;41.70;9.50;;;;;;5413502;26;20000;-74
2024/04/15 10:44:57;;;;;;;0.75;0.60;;;41.90;9.30;;;;;;5414152;26;20435;-73
2024/04/15 10:47:24;;;;;;;0.90;0.80;;;42.60;8.60;;;;;;5414547;26;20344;-72
2024/04/15 10:49:51;;;;;;;1.38;0.88;;;43.00;9.10;;;;;;5413528;26;20090;-72
2024/04/15 10:52:20;;;;;;;2.03;1.48;;;43.30;8.60;;;;;;5414040;26;20033;-74
2024/04/15 10:54:47;;;;;;;0.50;0.50;;;43.10;7.70;;;;;;5415665;26;20003;-74
2024/04/15 10:57:14;;;;;;;2.17;1.45;;;42.80;8.20;;;;;;5414084;26;19996;-73
2024/04/15 10:59:42;;;;;;;0.93;0.80;;;42.70;7.90;;;;;;5414972;26;20009;-73
2024/04/15 11:02:10;;;;;;;1.00;0.80;;;42.50;8.10;;;;;;5412875;26;19999;-74
2024/04/15 11:04:38;;;;;;;1.48;1.23;;;42.70;8.70;;;;;;5415812;26;19996;-72
2024/04/15 11:07:05;;;;;;;2.45;1.40;;;43.00;8.80;;;;;;5412990;26;20074;-75
2024/04/15 11:09:32;;;;;;;0.80;0.80;;;42.70;8.00;;;;;;5415474;26;20007;-72
2024/04/15 11:11:59;;;;;;;1.35;0.63;;;43.10;8.40;;;;;;5413869;26;20016;-72
2024/04/15 11:14:26;;;;;;;1.10;0.98;;;43.50;8.50;;;;;;5413394;26;20042;-72
2024/04/15 11:16:53;;;;;;;1.50;1.08;;;44.00;8.10;;;;;;5414720;26;20073;-74
2024/04/15 11:19:22;;;;;;;1.23;0.90;;;44.40;7.80;;;;;;5415141;26;19996;-72
2024/04/15 11:21:49;;;;;;;0.68;0.68;;;44.70;6.80;;;;;;5413218;26;20003;-74
2024/04/15 11:24:17;;;;;;;1.88;1.05;;;44.80;7.20;;;;;;5414287;26;20007;-74
2024/04/15 11:26:47;;;;;;;1.48;0.95;;;44.70;7.40;;;;;;5415110;26;20007;-72
2024/04/15 11:29:16;;;;;;;0.98;0.70;;;44.20;7.10;;;;;;5413584;26;20042;-73
2024/04/15 11:31:43;;;;;;;0.77;0.75;;;44.20;7.30;;;;;;5412921;26;19995;-74
2024/04/15 11:34:11;;;;;;;1.35;1.25;;;44.20;7.10;;;;;;5414145;26;19995;-74
2024/04/15 11:36:40;;;;;;;0.80;0.80;;;44.20;7.60;;;;;;5412587;26;20062;-73
2024/04/15 11:39:07;;;;;;;0.70;0.70;;;44.60;7.30;;;;;;5413216;26;20003;-73
2024/04/15 11:41:34;;;;;;;0.98;0.70;;;44.80;7.00;;;;;;5414382;26;20003;-74
2024/04/15 11:44:01;;;;;;;1.38;1.00;;;44.30;6.70;;;;;;5415182;26;20003;-74
2024/04/15 11:46:28;;;;;;;0.50;0.50;;;43.50;7.60;;;;;;5413439;26;20444;-74
2024/04/15 11:48:57;;;;;;;0.65;0.65;;;43.00;7.70;;;;;;5414927;26;20344;-74
2024/04/15 11:51:25;;;;;;;1.45;1.23;;;43.50;8.00;;;;;;5413934;26;20435;-72
2024/04/15 11:53:52;;;;;;;0.95;0.68;;;44.00;7.30;;;;;;5413000;26;19999;-74
2024/04/15 11:56:19;;;;;;;0.93;0.80;;;44.20;7.80;;;;;;5413243;26;20013;-74
2024/04/15 11:58:47;;;;;;;2.30;1.50;;;44.20;7.40;;;;;;5413353;26;20003;-72
2024/04/15 12:01:14;;;;;;;0.70;0.60;;;44.50;6.90;;;;;;5412492;26;20000;-72
2024/04/15 12:03:41;;;;;;;0.63;0.60;;;44.10;7.30;;;;;;5412370;26;20008;-73
2024/04/15 12:06:07;;;;;;;0.82;0.82;;;43.90;7.30;;;;;;5414908;26;20007;-73
2024/04/15 12:08:53;;;;;;;1.13;1.00;;;44.10;7.40;;;;;;5412626;26;20080;-74
2024/04/15 12:11:22;;;;;;;0.52;0.52;;;44.50;7.70;;;;;;5411764;26;19996;-74
2024/04/15 12:13:49;;;;;;;0.55;0.55;;;45.10;7.00;;;;;;5414334;26;19996;-73
2024/04/15 12:16:16;;;;;;;0.82;0.82;;;44.90;6.90;;;;;;5412782;26;19992;-73
2024/04/15 12:18:42;;;;;;;1.15;0.82;;;45.20;7.40;;;;;;5414277;26;19998;-72
2024/04/15 12:21:09;;;;;;;0.98;0.85;;;44.90;7.30;;;;;;5382709;26;19995;-73
2024/04/15 12:23:36;;;;;;;0.60;0.60;;;44.60;6.60;;;;;;5414501;26;20071;-73
2024/04/15 12:26:03;;;;;;;1.35;0.90;;;44.40;7.90;;;;;;5414062;26;20011;-74
2024/04/15 12:28:30;;;;;;;0.90;0.80;;;43.70;7.00;;;;;;5411330;26;20019;-74
2024/04/15 12:30:57;;;;;;;0.57;0.55;;;43.00;8.50;;;;;;5413339;26;20077;-74
2024/04/15 12:33:24;;;;;;;0.98;0.80;;;43.20;7.70;;;;;;5413580;26;20018;-74
2024/04/15 12:35:52;;;;;;;1.23;1.08;;;43.30;8.30;;;;;;5414193;26;20010;-73
2024/04/15 12:38:20;;;;;;;1.23;0.85;;;43.40;8.30;;;;;;5413076;26;19996;-72
2024/04/15 12:40:47;;;;;;;10.98;0.80;;;43.10;8.50;;;;;;5413413;26;20000;-72
2024/04/15 12:43:13;;;;;;;1.52;1.13;;;43.70;8.00;;;;;;5413678;26;20011;-72
2024/04/15 12:45:40;;;;;;;0.73;0.70;;;44.00;7.60;;;;;;5413698;26;19992;-73
2024/04/15 12:48:15;;;;;;;0.60;0.60;;;43.80;7.40;;;;;;5412003;26;19997;-73
2024/04/15 12:50:45;;;;;;;0.73;0.70;;;44.00;7.60;;;;;;5382210;26;20000;-71
2024/04/15 12:53:13;;;;;;;1.50;1.10;;;43.50;7.20;;;;;;5441430;26;20007;-72
2024/04/15 12:55:43;;;;;;;0.93;0.65;;;42.60;8.20;;;;;;5412220;26;20028;-71
2024/04/15 12:58:10;;;;;;;1.17;1.08;;;43.10;8.00;;;;;;5413530;26;20545;-72
2024/04/15 13:00:37;;;;;;;0.52;0.50;;;43.20;8.30;;;;;;5446840;26;20323;-71
2024/04/15 13:03:04;;;;;;;2.80;1.00;;;43.70;6.90;;;;;;5448629;26;20005;-72